Time;durP1;ratioP1;P1;durP2;ratioP2;P2;SDS_P1;SDS_P2;PMS_P1;PMS_P2;Temp;Humidity;BMP_temperature;BMP_pressure;BME280_temperature;BME280_humidity;BME280_pressure;Samples;Min_cycle;Max_cycle;Signal;HPM_P1;HPM_P2
2023/09/06 00:01:18;;;;;;;10.50;6.72;;;14.80;99.90;;;;;;5085783;28;20040;-63
2023/09/06 00:03:45;;;;;;;8.93;6.53;;;14.80;99.90;;;;;;5087731;28;20052;-61
2023/09/06 00:06:12;;;;;;;8.35;6.55;;;14.80;99.90;;;;;;5082912;28;20051;-64
2023/09/06 00:08:39;;;;;;;10.77;6.97;;;14.80;99.90;;;;;;5087351;28;20036;-64
2023/09/06 00:11:06;;;;;;;8.80;5.95;;;14.80;99.90;;;;;;5090972;28;20392;-64
2023/09/06 00:13:34;;;;;;;13.80;7.07;;;14.80;99.90;;;;;;5091509;28;20097;-64
2023/09/06 00:16:03;;;;;;;11.13;6.47;;;14.70;99.90;;;;;;5086894;28;20063;-64
2023/09/06 00:18:30;;;;;;;7.18;5.47;;;14.70;99.90;;;;;;5058678;28;20028;-64
2023/09/06 00:20:57;;;;;;;11.70;6.53;;;14.70;99.90;;;;;;5094007;28;20117;-64
2023/09/06 00:23:25;;;;;;;9.80;6.13;;;14.60;99.90;;;;;;5094730;28;20040;-62
2023/09/06 00:25:55;;;;;;;9.13;6.38;;;14.40;99.90;;;;;;5094741;28;20044;-64
2023/09/06 00:28:25;;;;;;;11.95;6.57;;;14.30;99.90;;;;;;5095244;28;20040;-64
2023/09/06 00:30:56;;;;;;;9.07;6.25;;;14.30;99.90;;;;;;5076986;28;20036;-64
2023/09/06 00:33:26;;;;;;;8.80;6.30;;;14.30;99.90;;;;;;5075282;28;20043;-63
2023/09/06 00:35:54;;;;;;;7.80;6.10;;;14.20;99.90;;;;;;5092626;28;20047;-63
2023/09/06 00:38:20;;;;;;;8.65;5.95;;;14.30;99.90;;;;;;5081532;28;20036;-64
2023/09/06 00:40:51;;;;;;;9.23;6.05;;;14.30;99.90;;;;;;5060160;28;20089;-64
2023/09/06 00:43:18;;;;;;;10.38;6.40;;;14.30;99.90;;;;;;5077956;28;20049;-63
2023/09/06 00:45:50;;;;;;;11.75;7.50;;;14.30;99.90;;;;;;5064851;28;20504;-64
2023/09/06 00:48:21;;;;;;;10.60;7.10;;;14.30;99.90;;;;;;5095216;28;20071;-64
2023/09/06 00:50:50;;;;;;;10.52;6.47;;;14.30;99.90;;;;;;5093550;28;20515;-63
2023/09/06 00:53:19;;;;;;;11.95;6.65;;;14.30;99.90;;;;;;5065041;28;20944;-63
2023/09/06 00:55:48;;;;;;;9.45;6.53;;;14.30;99.90;;;;;;5072612;28;20130;-63
2023/09/06 00:58:18;;;;;;;8.68;6.00;;;14.30;99.90;;;;;;5094249;28;20040;-64
2023/09/06 01:00:47;;;;;;;10.70;6.85;;;14.30;99.90;;;;;;5074242;28;20054;-63
2023/09/06 01:03:15;;;;;;;11.82;7.82;;;14.30;99.90;;;;;;5072369;28;20059;-64
2023/09/06 01:05:59;;;;;;;12.32;6.97;;;14.40;99.90;;;;;;5071946;28;20579;-64
2023/09/06 01:08:34;;;;;;;11.85;7.20;;;14.40;99.90;;;;;;5086467;28;20436;-64
2023/09/06 01:11:20;;;;;;;9.50;7.22;;;14.40;99.90;;;;;;5076242;28;20055;-64
2023/09/06 01:13:49;;;;;;;12.48;7.75;;;14.40;99.90;;;;;;5075800;28;20040;-63
2023/09/06 01:16:20;;;;;;;11.00;7.38;;;14.40;99.90;;;;;;5076622;28;20127;-64
2023/09/06 01:18:47;;;;;;;9.23;6.55;;;14.40;99.90;;;;;;5070864;28;20044;-63
2023/09/06 01:21:17;;;;;;;9.32;6.72;;;14.40;99.90;;;;;;5076444;28;20052;-63
2023/09/06 01:23:44;;;;;;;10.07;6.47;;;14.40;99.90;;;;;;5075469;28;20083;-62
2023/09/06 01:26:11;;;;;;;7.90;6.00;;;14.40;99.90;;;;;;5076564;28;20055;-64
2023/09/06 01:28:38;;;;;;;8.65;7.07;;;14.40;99.90;;;;;;5075404;28;20062;-64
2023/09/06 01:31:05;;;;;;;9.70;7.28;;;14.40;99.90;;;;;;5093300;28;20497;-64
2023/09/06 01:33:32;;;;;;;;;;;14.40;99.90;;;;;;5075565;28;20137;-63
2023/09/06 01:35:59;;;;;;;8.32;6.15;;;14.40;99.90;;;;;;5094165;28;19955;-62
2023/09/06 01:38:26;;;;;;;9.48;7.00;;;14.30;99.90;;;;;;5074799;28;20064;-63
2023/09/06 01:40:53;;;;;;;;;;;14.30;99.90;;;;;;5076497;28;20078;-64
2023/09/06 01:43:20;;;;;;;11.48;7.47;;;14.30;99.90;;;;;;5075276;28;19958;-62
2023/09/06 01:45:51;;;;;;;12.10;6.88;;;14.30;99.90;;;;;;5076213;28;20048;-64
2023/09/06 01:48:21;;;;;;;11.93;6.20;;;14.30;99.90;;;;;;5073143;28;20441;-64
2023/09/06 01:50:49;;;;;;;10.95;6.57;;;14.20;99.90;;;;;;5064770;28;20500;-63
2023/09/06 01:53:15;;;;;;;;;;;14.20;99.90;;;;;;5075925;28;20603;-63
2023/09/06 01:55:43;;;;;;;8.38;6.18;;;14.20;99.90;;;;;;5075372;28;19920;-63
2023/09/06 01:58:11;;;;;;;8.15;5.95;;;14.20;99.90;;;;;;5073908;28;20554;-63
2023/09/06 02:00:38;;;;;;;10.50;6.38;;;14.20;99.90;;;;;;5075258;28;20413;-63
2023/09/06 02:03:07;;;;;;;10.88;6.28;;;14.10;99.90;;;;;;5093629;28;20054;-64
2023/09/06 02:05:35;;;;;;;8.48;6.03;;;14.10;99.90;;;;;;5075657;28;20477;-63
2023/09/06 02:08:03;;;;;;;10.23;7.03;;;14.10;99.90;;;;;;5074397;28;20097;-64
2023/09/06 02:10:30;;;;;;;12.57;7.47;;;14.10;99.90;;;;;;5093721;28;20044;-63
2023/09/06 02:12:57;;;;;;;8.65;6.35;;;14.10;99.90;;;;;;5075408;28;20044;-64
2023/09/06 02:15:24;;;;;;;8.15;5.70;;;14.10;99.90;;;;;;5085453;28;20089;-64
2023/09/06 02:17:51;;;;;;;10.90;6.10;;;14.00;99.90;;;;;;5074338;28;20040;-64
2023/09/06 02:20:21;;;;;;;14.57;5.70;;;14.10;99.90;;;;;;5074987;28;20056;-64
2023/09/06 02:22:56;;;;;;;8.77;5.65;;;14.00;99.90;;;;;;5093449;28;20036;-64
2023/09/06 02:25:33;;;;;;;9.93;5.85;;;14.00;99.90;;;;;;5092123;28;20055;-64
2023/09/06 02:28:05;;;;;;;11.48;5.72;;;13.90;99.90;;;;;;5093644;28;20592;-64
2023/09/06 02:30:33;;;;;;;10.25;5.72;;;13.80;99.90;;;;;;5074920;28;20044;-63
2023/09/06 02:33:00;;;;;;;8.70;6.07;;;13.80;99.90;;;;;;5093518;28;20130;-64
2023/09/06 02:35:27;;;;;;;10.52;6.15;;;13.80;99.90;;;;;;5091975;28;20040;-64
2023/09/06 02:37:54;;;;;;;8.75;5.50;;;13.70;99.90;;;;;;5075027;28;20058;-63
2023/09/06 02:40:21;;;;;;;10.55;6.65;;;13.60;99.90;;;;;;5091452;28;20050;-63
2023/09/06 02:42:51;;;;;;;11.13;6.82;;;13.70;99.90;;;;;;5073578;28;20040;-62
2023/09/06 02:45:18;;;;;;;14.13;6.22;;;13.80;99.90;;;;;;5065736;28;20082;-64
2023/09/06 02:47:50;;;;;;;11.23;7.22;;;13.80;99.90;;;;;;5074186;28;20079;-64
2023/09/06 02:50:22;;;;;;;9.40;6.68;;;13.80;99.90;;;;;;5070688;28;20053;-64
2023/09/06 02:52:53;;;;;;;10.93;7.22;;;13.80;99.90;;;;;;5074702;28;20074;-64
2023/09/06 02:55:20;;;;;;;12.23;7.13;;;13.80;99.90;;;;;;5093049;28;20049;-64
2023/09/06 02:57:49;;;;;;;9.55;6.68;;;13.80;99.90;;;;;;5093011;28;20032;-63
2023/09/06 03:00:24;;;;;;;10.30;7.07;;;13.80;99.90;;;;;;5073823;28;20044;-63
2023/09/06 03:02:54;;;;;;;9.35;6.60;;;13.80;99.90;;;;;;5088789;28;20123;-63
2023/09/06 03:05:22;;;;;;;16.17;7.35;;;13.80;99.90;;;;;;5073250;28;20044;-64
2023/09/06 03:07:49;;;;;;;12.25;6.35;;;13.80;99.90;;;;;;5074418;28;20245;-64
2023/09/06 03:10:19;;;;;;;10.88;7.03;;;13.80;99.90;;;;;;5072903;28;20048;-64
2023/09/06 03:12:54;;;;;;;10.95;6.95;;;13.80;99.90;;;;;;5068832;28;20044;-62
2023/09/06 03:15:27;;;;;;;9.32;6.72;;;13.80;99.90;;;;;;5073893;28;20505;-62
2023/09/06 03:17:58;;;;;;;9.27;6.68;;;13.90;99.90;;;;;;5074276;28;20089;-64
2023/09/06 03:20:33;;;;;;;11.30;7.10;;;13.90;99.90;;;;;;5090757;28;20043;-64
2023/09/06 03:23:17;;;;;;;8.82;6.55;;;13.90;99.90;;;;;;5074493;28;20481;-64
2023/09/06 03:25:57;;;;;;;9.93;6.20;;;13.90;99.90;;;;;;5081447;28;20043;-63
2023/09/06 03:28:29;;;;;;;10.40;6.80;;;13.80;99.90;;;;;;5074158;28;20043;-63
2023/09/06 03:31:00;;;;;;;11.45;6.95;;;13.90;99.90;;;;;;5073537;28;20385;-64
2023/09/06 03:33:28;;;;;;;7.93;5.75;;;13.80;99.90;;;;;;5072862;28;20067;-64
2023/09/06 03:35:56;;;;;;;10.80;5.93;;;13.80;99.90;;;;;;5080743;28;20036;-64
2023/09/06 03:38:25;;;;;;;;;;;13.80;99.90;;;;;;5074318;28;20052;-63
2023/09/06 03:40:53;;;;;;;10.85;6.30;;;13.80;99.90;;;;;;5055898;28;19959;-63
2023/09/06 03:43:19;;;;;;;8.90;5.90;;;13.70;99.90;;;;;;5073608;28;20117;-64
2023/09/06 03:45:51;;;;;;;14.13;6.47;;;13.80;99.90;;;;;;5091559;28;20051;-64
2023/09/06 03:48:20;;;;;;;7.80;5.57;;;13.80;99.90;;;;;;5074018;28;20511;-64
2023/09/06 03:50:51;;;;;;;7.93;5.55;;;13.80;99.90;;;;;;5090582;28;20051;-64
2023/09/06 03:53:19;;;;;;;9.68;6.78;;;13.90;99.90;;;;;;5071267;28;20040;-62
2023/09/06 03:55:47;;;;;;;10.15;5.63;;;13.80;99.90;;;;;;5069286;28;20087;-63
2023/09/06 03:58:14;;;;;;;9.55;6.03;;;13.80;99.90;;;;;;5070948;28;20423;-63
2023/09/06 04:00:44;;;;;;;;;;;13.80;99.90;;;;;;5073101;28;20378;-63
2023/09/06 04:03:21;;;;;;;8.23;6.15;;;13.70;99.90;;;;;;5090820;28;19920;-63
2023/09/06 04:05:53;;;;;;;12.63;5.78;;;13.70;99.90;;;;;;5062033;28;20043;-63
2023/09/06 04:08:28;;;;;;;8.20;5.53;;;13.60;99.90;;;;;;5071646;28;20060;-64
2023/09/06 04:10:56;;;;;;;9.50;5.95;;;13.60;99.90;;;;;;5071875;28;20044;-64
2023/09/06 04:13:23;;;;;;;11.40;6.93;;;13.60;99.90;;;;;;5091656;28;20051;-63
2023/09/06 04:15:50;;;;;;;12.63;6.63;;;13.50;99.90;;;;;;5070181;28;20157;-63
2023/09/06 04:18:18;;;;;;;;;;;13.50;99.90;;;;;;5092136;28;20052;-64
2023/09/06 04:20:46;;;;;;;10.88;6.65;;;13.50;99.90;;;;;;5072505;28;19927;-64
2023/09/06 04:23:16;;;;;;;8.45;6.40;;;13.50;99.90;;;;;;5073546;28;20044;-63
2023/09/06 04:25:49;;;;;;;10.55;6.38;;;13.40;99.90;;;;;;5073052;28;20401;-64
2023/09/06 04:28:20;;;;;;;8.25;6.28;;;13.40;99.90;;;;;;5070067;28;20040;-64
2023/09/06 04:30:51;;;;;;;10.57;7.13;;;13.40;99.90;;;;;;5086051;28;20460;-64
2023/09/06 04:33:21;;;;;;;11.50;6.88;;;13.40;99.90;;;;;;5069324;28;20405;-63
2023/09/06 04:35:53;;;;;;;8.73;5.68;;;13.40;99.90;;;;;;5071559;28;20043;-64
2023/09/06 04:38:25;;;;;;;10.43;6.18;;;13.40;99.90;;;;;;5064739;28;20127;-62
2023/09/06 04:40:58;;;;;;;9.43;6.07;;;13.40;99.90;;;;;;5056697;28;20052;-64
2023/09/06 04:43:29;;;;;;;10.15;6.15;;;13.40;99.90;;;;;;5061474;28;20055;-63
2023/09/06 04:45:58;;;;;;;9.63;6.40;;;13.40;99.90;;;;;;5058249;28;20052;-64
2023/09/06 04:48:25;;;;;;;12.55;6.32;;;13.40;99.90;;;;;;5054370;28;20066;-63
2023/09/06 04:50:57;;;;;;;10.00;6.35;;;13.40;99.90;;;;;;5070153;28;20040;-64
2023/09/06 04:53:24;;;;;;;10.55;6.55;;;13.40;99.90;;;;;;5073107;28;20045;-64
2023/09/06 04:55:52;;;;;;;7.43;5.93;;;13.30;99.90;;;;;;5064110;28;20037;-64
2023/09/06 04:58:24;;;;;;;10.65;6.00;;;13.30;99.90;;;;;;5064835;28;20137;-63
2023/09/06 05:00:51;;;;;;;11.25;6.38;;;13.30;99.90;;;;;;5061518;28;20139;-62
2023/09/06 05:03:19;;;;;;;13.80;6.43;;;13.30;99.90;;;;;;5061267;28;20036;-64
2023/09/06 05:05:52;;;;;;;11.95;6.45;;;13.40;99.90;;;;;;5069279;28;20478;-64
2023/09/06 05:08:22;;;;;;;8.77;6.40;;;13.40;99.90;;;;;;5068039;28;20071;-63
2023/09/06 05:10:52;;;;;;;13.18;6.97;;;13.40;99.90;;;;;;5070547;28;20051;-63
2023/09/06 05:13:20;;;;;;;12.20;7.00;;;13.30;99.90;;;;;;5076462;28;20047;-64
2023/09/06 05:15:47;;;;;;;13.75;7.10;;;13.30;99.90;;;;;;5075354;28;20381;-63
2023/09/06 05:18:14;;;;;;;10.73;6.60;;;13.30;99.90;;;;;;5074535;28;20036;-63
2023/09/06 05:20:43;;;;;;;12.43;6.90;;;13.30;99.90;;;;;;5067859;28;20067;-64
2023/09/06 05:23:19;;;;;;;10.70;6.85;;;13.30;99.90;;;;;;5073679;28;20048;-64
2023/09/06 05:25:46;;;;;;;8.68;6.68;;;13.30;99.90;;;;;;5083444;28;20048;-63
2023/09/06 05:28:21;;;;;;;11.88;7.22;;;13.30;99.90;;;;;;5071835;28;20043;-64
2023/09/06 05:30:53;;;;;;;18.70;7.43;;;13.30;99.90;;;;;;5093494;28;20032;-61
2023/09/06 05:33:20;;;;;;;9.48;6.30;;;13.40;99.90;;;;;;5069849;28;20049;-64
2023/09/06 05:35:47;;;;;;;10.10;7.10;;;13.40;99.90;;;;;;5094439;28;20035;-64
2023/09/06 05:38:15;;;;;;;9.98;6.80;;;13.40;99.90;;;;;;5075376;28;20469;-64
2023/09/06 05:40:43;;;;;;;10.85;6.80;;;13.40;99.90;;;;;;5074800;28;20036;-63
2023/09/06 05:43:19;;;;;;;10.60;6.40;;;13.40;99.90;;;;;;5076012;28;20098;-64
2023/09/06 05:45:45;;;;;;;11.55;6.63;;;13.50;99.90;;;;;;5075502;28;20490;-63
2023/09/06 05:48:13;;;;;;;8.88;6.45;;;13.60;99.90;;;;;;5074529;28;20036;-63
2023/09/06 05:50:41;;;;;;;9.10;6.43;;;13.60;99.90;;;;;;5070499;28;20048;-64
2023/09/06 05:53:09;;;;;;;9.90;6.78;;;13.60;99.90;;;;;;5075151;28;20489;-64
2023/09/06 05:55:38;;;;;;;12.07;5.97;;;13.70;99.90;;;;;;5074189;28;20059;-64
2023/09/06 05:58:05;;;;;;;10.60;6.28;;;13.80;99.90;;;;;;5074849;28;20477;-64
2023/09/06 06:00:33;;;;;;;9.60;6.53;;;13.80;99.90;;;;;;5075006;28;20051;-64
2023/09/06 06:03:03;;;;;;;7.68;5.55;;;13.90;99.90;;;;;;5075559;28;20492;-64
2023/09/06 06:05:30;;;;;;;;;;;13.90;99.90;;;;;;5087757;28;20025;-63
2023/09/06 06:07:59;;;;;;;9.65;6.18;;;13.90;99.90;;;;;;5070507;28;19920;-64
2023/09/06 06:10:34;;;;;;;10.60;6.07;;;14.00;99.90;;;;;;5090812;28;20047;-63
2023/09/06 06:13:03;;;;;;;12.05;6.47;;;14.10;99.90;;;;;;5093461;28;20048;-63
2023/09/06 06:15:30;;;;;;;10.98;5.93;;;14.20;99.90;;;;;;5086797;28;20498;-64
2023/09/06 06:17:57;;;;;;;8.75;6.35;;;14.20;99.90;;;;;;5074352;28;20040;-63
2023/09/06 06:20:24;;;;;;;11.95;6.45;;;14.30;99.90;;;;;;5091724;28;20588;-64
2023/09/06 06:23:08;;;;;;;11.27;6.22;;;14.30;99.90;;;;;;5092941;28;20553;-63
2023/09/06 06:25:35;;;;;;;10.57;6.70;;;14.40;99.90;;;;;;5086301;28;20052;-64
2023/09/06 06:28:03;;;;;;;9.18;6.50;;;14.50;99.90;;;;;;5093120;28;20463;-64
2023/09/06 06:30:29;;;;;;;11.35;6.65;;;14.50;99.90;;;;;;5092298;28;20032;-63
2023/09/06 06:33:00;;;;;;;8.90;6.20;;;14.60;99.90;;;;;;5092899;28;20047;-63
2023/09/06 06:35:27;;;;;;;13.40;6.05;;;14.70;99.90;;;;;;5077976;28;20102;-64
2023/09/06 06:37:55;;;;;;;;;;;14.80;99.90;;;;;;5093079;28;20036;-64
2023/09/06 06:40:24;;;;;;;9.67;6.60;;;14.90;99.90;;;;;;5091752;28;19919;-62
2023/09/06 06:42:51;;;;;;;11.02;6.60;;;15.10;99.90;;;;;;5084522;28;20115;-63
2023/09/06 06:45:18;;;;;;;9.32;5.63;;;15.20;99.90;;;;;;5069539;28;20044;-64
2023/09/06 06:47:45;;;;;;;13.60;6.40;;;15.20;99.90;;;;;;5092571;28;20493;-63
2023/09/06 06:50:12;;;;;;;9.50;6.32;;;15.30;99.90;;;;;;5092125;28;20493;-63
2023/09/06 06:52:44;;;;;;;9.43;5.28;;;15.50;99.90;;;;;;5087563;28;20052;-63
2023/09/06 06:55:11;;;;;;;11.75;5.68;;;15.60;99.90;;;;;;5085101;28;20043;-63
2023/09/06 06:57:37;;;;;;;9.15;5.45;;;15.80;99.90;;;;;;5092500;28;20040;-64
2023/09/06 07:00:06;;;;;;;7.50;5.55;;;15.90;99.90;;;;;;5091895;28;20032;-64
2023/09/06 07:02:34;;;;;;;8.27;5.93;;;16.00;99.90;;;;;;5086468;28;20115;-64
2023/09/06 07:05:01;;;;;;;8.80;5.45;;;16.00;99.90;;;;;;5092278;28;20399;-63
2023/09/06 07:07:28;;;;;;;12.48;6.10;;;16.10;99.90;;;;;;5092270;28;20377;-62
2023/09/06 07:09:55;;;;;;;9.32;5.72;;;16.20;99.90;;;;;;5090526;28;20063;-64
2023/09/06 07:12:22;;;;;;;8.10;5.93;;;16.20;99.90;;;;;;5091873;28;20036;-64
2023/09/06 07:14:50;;;;;;;19.27;8.05;;;16.30;99.90;;;;;;5091681;28;20048;-62
2023/09/06 07:17:17;;;;;;;10.95;5.90;;;16.40;99.90;;;;;;5091528;28;20040;-63
2023/09/06 07:19:44;;;;;;;15.90;6.47;;;16.40;99.90;;;;;;5073534;28;20134;-64
2023/09/06 07:22:11;;;;;;;9.43;5.93;;;16.50;99.90;;;;;;5090315;28;20047;-64
2023/09/06 07:24:38;;;;;;;6.70;5.10;;;16.60;99.90;;;;;;5082042;28;20040;-64
2023/09/06 07:27:05;;;;;;;9.32;5.10;;;16.70;99.90;;;;;;5070466;28;20049;-64
2023/09/06 07:29:32;;;;;;;6.93;5.25;;;16.80;99.90;;;;;;5088214;28;20050;-63
2023/09/06 07:31:58;;;;;;;7.47;5.05;;;16.80;99.90;;;;;;5082508;28;20122;-64
2023/09/06 07:34:25;;;;;;;9.45;4.93;;;17.00;99.90;;;;;;5091457;28;20040;-63
2023/09/06 07:36:52;;;;;;;6.90;4.65;;;17.10;99.90;;;;;;5091371;28;20488;-62
2023/09/06 07:39:21;;;;;;;9.82;4.75;;;17.20;99.90;;;;;;5088638;28;20042;-64
2023/09/06 07:41:50;;;;;;;7.07;5.10;;;17.30;99.90;;;;;;5089399;28;20501;-63
2023/09/06 07:44:18;;;;;;;9.95;4.55;;;17.40;99.90;;;;;;5091047;28;20116;-64
2023/09/06 07:46:48;;;;;;;8.32;4.78;;;17.40;99.90;;;;;;5090900;28;20497;-64
2023/09/06 07:49:16;;;;;;;7.47;4.70;;;17.60;99.90;;;;;;5090160;28;20044;-63
2023/09/06 07:51:43;;;;;;;5.85;4.20;;;17.70;99.90;;;;;;5091288;28;20044;-64
2023/09/06 07:54:11;;;;;;;7.47;4.72;;;17.80;99.90;;;;;;5091194;28;20028;-63
2023/09/06 07:56:39;;;;;;;7.18;5.07;;;17.90;99.90;;;;;;5091526;28;20040;-64
2023/09/06 07:59:09;;;;;;;7.50;4.30;;;18.00;99.90;;;;;;5089754;28;20067;-63
2023/09/06 08:01:36;;;;;;;9.23;4.57;;;18.20;99.90;;;;;;5087980;28;20443;-63
2023/09/06 08:04:03;;;;;;;9.02;4.55;;;18.30;99.90;;;;;;5090974;28;20119;-64
2023/09/06 08:06:30;;;;;;;6.80;4.75;;;18.50;99.90;;;;;;5089653;28;20051;-64
2023/09/06 08:08:58;;;;;;;9.85;4.57;;;18.60;99.90;;;;;;5085839;28;20120;-64
2023/09/06 08:11:25;;;;;;;6.32;4.45;;;18.70;99.90;;;;;;5071840;28;20075;-64
2023/09/06 08:13:52;;;;;;;5.30;4.03;;;18.70;99.90;;;;;;5090942;28;20453;-64
2023/09/06 08:16:19;;;;;;;10.18;4.35;;;18.90;99.90;;;;;;5091559;28;20111;-64
2023/09/06 08:18:46;;;;;;;7.45;4.07;;;19.00;99.90;;;;;;5091177;28;20113;-64
2023/09/06 08:21:15;;;;;;;7.82;4.30;;;19.20;99.90;;;;;;5089293;28;20032;-64
2023/09/06 08:23:43;;;;;;;8.10;4.07;;;19.40;99.90;;;;;;5090779;28;20036;-64
2023/09/06 08:26:11;;;;;;;5.63;4.22;;;19.50;99.90;;;;;;5090568;28;20370;-64
2023/09/06 08:28:38;;;;;;;5.63;4.10;;;19.60;99.90;;;;;;5086194;28;20037;-65
2023/09/06 08:31:05;;;;;;;6.10;3.90;;;19.70;99.90;;;;;;5087160;28;20032;-64
2023/09/06 08:33:33;;;;;;;5.93;3.97;;;19.90;99.90;;;;;;5090894;28;20089;-65
2023/09/06 08:36:01;;;;;;;5.28;3.95;;;20.00;99.90;;;;;;5091056;28;20541;-64
2023/09/06 08:38:27;;;;;;;5.25;3.95;;;20.00;99.90;;;;;;5084524;28;20591;-64
2023/09/06 08:40:55;;;;;;;9.70;4.43;;;20.10;99.90;;;;;;5071957;28;20055;-65
2023/09/06 08:43:23;;;;;;;6.25;4.15;;;20.20;99.90;;;;;;5064259;28;20040;-64
2023/09/06 08:45:51;;;;;;;6.18;4.03;;;20.20;99.90;;;;;;5062899;28;20051;-64
2023/09/06 08:48:19;;;;;;;5.95;3.88;;;20.30;99.90;;;;;;5087827;28;20047;-64
2023/09/06 08:50:47;;;;;;;4.90;3.55;;;20.30;99.90;;;;;;5073253;28;20064;-65
2023/09/06 08:53:15;;;;;;;5.50;3.83;;;20.30;99.90;;;;;;5078794;28;20062;-64
2023/09/06 08:55:44;;;;;;;8.93;4.13;;;20.40;99.90;;;;;;5094758;28;20048;-64
2023/09/06 08:58:11;;;;;;;5.70;3.83;;;20.40;99.90;;;;;;5088698;28;20040;-65
2023/09/06 09:00:38;;;;;;;6.47;4.25;;;20.50;99.90;;;;;;5094316;28;20048;-65
2023/09/06 09:03:05;;;;;;;7.95;3.80;;;20.60;99.90;;;;;;5094393;28;20039;-64
2023/09/06 09:05:32;;;;;;;;;;;20.60;99.90;;;;;;5095180;28;20048;-65
2023/09/06 09:08:00;;;;;;;5.93;4.13;;;20.70;99.90;;;;;;5092712;28;19935;-65
2023/09/06 09:10:31;;;;;;;5.28;4.20;;;20.80;99.90;;;;;;5090352;28;20451;-64
2023/09/06 09:12:59;;;;;;;6.53;3.90;;;21.00;99.90;;;;;;5094558;28;20112;-64
2023/09/06 09:15:25;;;;;;;;;;;21.20;99.90;;;;;;5094196;28;20044;-64
2023/09/06 09:17:53;;;;;;;5.35;3.83;;;21.20;99.90;;;;;;5094383;28;19920;-65
2023/09/06 09:20:30;;;;;;;5.18;3.72;;;21.40;99.90;;;;;;5087179;28;20081;-65
2023/09/06 09:23:03;;;;;;;5.85;4.18;;;21.40;99.90;;;;;;5094212;28;20036;-64
2023/09/06 09:25:32;;;;;;;6.65;3.97;;;21.50;99.90;;;;;;5094000;28;20048;-65
2023/09/06 09:27:59;;;;;;;7.85;3.90;;;21.60;99.90;;;;;;5094110;28;20036;-65
2023/09/06 09:30:31;;;;;;;6.03;4.40;;;21.70;99.90;;;;;;5086344;28;20473;-65
2023/09/06 09:33:01;;;;;;;9.50;4.20;;;21.70;99.90;;;;;;5093882;28;20078;-65
2023/09/06 09:35:31;;;;;;;6.18;4.18;;;21.80;99.90;;;;;;5089513;28;20044;-64
2023/09/06 09:38:01;;;;;;;5.22;4.25;;;21.90;99.90;;;;;;5093584;28;20071;-65
2023/09/06 09:40:34;;;;;;;5.72;4.18;;;22.00;99.90;;;;;;5088904;28;20067;-65
2023/09/06 09:43:19;;;;;;;9.27;3.88;;;22.10;99.90;;;;;;5087035;28;20079;-64
2023/09/06 09:45:45;;;;;;;7.25;4.55;;;22.20;99.90;;;;;;5092885;28;20040;-65
2023/09/06 09:48:15;;;;;;;6.30;4.05;;;22.20;99.90;;;;;;5075076;28;20036;-65
2023/09/06 09:50:44;;;;;;;6.47;3.83;;;22.20;99.90;;;;;;5085147;28;20035;-65
2023/09/06 09:53:12;;;;;;;6.68;3.90;;;22.30;99.90;;;;;;5093891;28;20396;-65
2023/09/06 09:55:47;;;;;;;4.90;4.00;;;22.40;99.90;;;;;;5093700;28;20040;-65
2023/09/06 09:58:17;;;;;;;5.00;4.45;;;22.50;99.90;;;;;;5087874;28;20036;-65
2023/09/06 10:00:44;;;;;;;5.72;4.05;;;22.60;99.90;;;;;;5092800;28;20102;-64
2023/09/06 10:03:13;;;;;;;5.55;4.18;;;22.70;99.90;;;;;;5085047;28;20043;-65
2023/09/06 10:05:42;;;;;;;6.43;4.28;;;22.70;99.90;;;;;;5092306;28;20068;-65
2023/09/06 10:08:11;;;;;;;4.50;3.60;;;22.70;99.90;;;;;;5084906;28;20044;-64
2023/09/06 10:10:39;;;;;;;6.55;3.45;;;22.80;99.90;;;;;;5086246;28;20048;-65
2023/09/06 10:13:08;;;;;;;6.60;4.10;;;22.80;99.90;;;;;;5074352;28;20135;-65
2023/09/06 10:15:37;;;;;;;6.13;3.67;;;22.90;99.90;;;;;;5092046;28;20034;-65
2023/09/06 10:18:06;;;;;;;5.53;4.22;;;22.90;99.90;;;;;;5090703;28;20090;-65
2023/09/06 10:20:35;;;;;;;5.22;4.20;;;23.00;99.90;;;;;;5092757;28;20032;-65
2023/09/06 10:23:05;;;;;;;6.57;4.15;;;23.10;99.90;;;;;;5084931;28;20045;-65
2023/09/06 10:25:39;;;;;;;6.13;4.47;;;23.20;99.90;;;;;;5093117;28;20047;-65
2023/09/06 10:28:07;;;;;;;6.10;4.10;;;23.30;99.90;;;;;;5092842;28;20047;-65
2023/09/06 10:30:45;;;;;;;8.88;4.82;;;23.30;99.90;;;;;;5086092;28;20056;-65
2023/09/06 10:33:33;;;;;;;5.10;4.40;;;23.20;99.90;;;;;;5084828;28;20402;-65
2023/09/06 10:36:07;;;;;;;4.75;4.18;;;23.10;99.90;;;;;;5091878;28;20089;-65
2023/09/06 10:38:58;;;;;;;7.15;4.30;;;23.10;99.90;;;;;;5092800;28;20260;-65
2023/09/06 10:41:26;;;;;;;6.38;4.40;;;23.10;99.90;;;;;;5088278;28;20040;-65
2023/09/06 10:43:57;;;;;;;8.07;4.97;;;23.00;99.90;;;;;;5091928;28;20404;-64
2023/09/06 10:46:26;;;;;;;6.90;4.70;;;23.00;99.90;;;;;;5092351;28;20039;-65
2023/09/06 10:49:19;;;;;;;6.07;4.65;;;23.00;99.90;;;;;;5084981;28;20102;-65
2023/09/06 10:52:03;;;;;;;7.15;4.75;;;23.00;99.90;;;;;;5088281;28;20040;-65
2023/09/06 10:54:35;;;;;;;6.57;4.80;;;23.10;99.90;;;;;;5086391;28;20378;-65
2023/09/06 10:57:05;;;;;;;7.43;4.80;;;22.90;99.90;;;;;;5091892;28;20044;-65
2023/09/06 10:59:36;;;;;;;6.35;5.00;;;22.90;99.90;;;;;;5092144;28;20484;-65
2023/09/06 11:02:19;;;;;;;8.07;5.07;;;22.90;99.90;;;;;;5084285;28;20644;-65
2023/09/06 11:05:02;;;;;;;8.02;4.97;;;23.00;99.90;;;;;;5092131;28;20110;-65
2023/09/06 11:07:41;;;;;;;5.65;4.97;;;23.10;99.90;;;;;;5074283;28;20059;-65
2023/09/06 11:10:22;;;;;;;7.07;4.83;;;23.00;99.90;;;;;;5090712;28;20046;-64
2023/09/06 11:12:53;;;;;;;11.80;5.40;;;23.10;99.90;;;;;;5092287;28;20047;-65
2023/09/06 11:15:21;;;;;;;6.65;5.05;;;23.10;99.90;;;;;;5091701;28;20047;-64
2023/09/06 11:17:48;;;;;;;8.10;5.28;;;23.10;99.90;;;;;;5087877;28;20033;-65
2023/09/06 11:20:16;;;;;;;7.28;5.43;;;23.20;99.90;;;;;;5090368;28;20036;-65
2023/09/06 11:22:56;;;;;;;11.75;6.00;;;23.20;99.90;;;;;;5092035;28;20048;-65
2023/09/06 11:25:25;;;;;;;9.35;6.35;;;23.20;99.90;;;;;;5083904;28;20044;-65
2023/09/06 11:27:55;;;;;;;9.13;6.57;;;23.30;99.90;;;;;;5091424;28;20044;-65
2023/09/06 11:30:23;;;;;;;8.68;6.78;;;23.30;99.90;;;;;;5087395;28;20044;-64
2023/09/06 11:32:51;;;;;;;9.50;6.80;;;23.20;99.90;;;;;;5091934;28;20071;-65
2023/09/06 11:35:22;;;;;;;9.05;7.13;;;23.20;99.90;;;;;;5083107;28;20105;-65
2023/09/06 11:37:51;;;;;;;7.80;5.90;;;23.20;99.90;;;;;;5084900;28;20044;-65
2023/09/06 11:40:20;;;;;;;9.30;6.97;;;23.20;99.90;;;;;;5080727;28;20043;-65
2023/09/06 11:42:52;;;;;;;9.85;6.47;;;23.20;99.90;;;;;;5090425;28;20047;-65
2023/09/06 11:45:24;;;;;;;13.88;6.30;;;23.30;99.90;;;;;;5082059;28;20040;-65
2023/09/06 11:47:59;;;;;;;10.57;6.70;;;23.30;99.90;;;;;;5091545;28;20047;-65
2023/09/06 11:50:29;;;;;;;15.32;7.22;;;23.40;99.90;;;;;;5087086;28;20500;-65
2023/09/06 11:53:02;;;;;;;10.48;6.57;;;23.40;99.90;;;;;;5091594;28;20455;-65
2023/09/06 11:55:32;;;;;;;8.50;6.53;;;23.40;99.90;;;;;;5091064;28;20044;-65
2023/09/06 11:57:59;;;;;;;14.00;7.03;;;23.50;99.90;;;;;;5086921;28;20091;-65
2023/09/06 12:00:46;;;;;;;10.07;7.28;;;23.50;99.90;;;;;;5084976;28;20036;-64
2023/09/06 12:03:14;;;;;;;11.57;7.10;;;23.60;99.90;;;;;;5090813;28;20566;-65
2023/09/06 12:05:46;;;;;;;10.63;7.50;;;23.50;99.90;;;;;;5091147;28;20059;-65
2023/09/06 12:08:23;;;;;;;9.88;6.50;;;23.60;99.90;;;;;;5082557;28;20556;-65
2023/09/06 12:11:05;;;;;;;9.80;6.40;;;23.60;99.90;;;;;;5072958;28;20519;-65
2023/09/06 12:13:34;;;;;;;8.02;6.90;;;23.70;99.90;;;;;;5083826;28;20055;-65
2023/09/06 12:16:04;;;;;;;6.47;5.32;;;23.80;99.90;;;;;;5091118;28;20048;-65
2023/09/06 12:18:31;;;;;;;8.48;5.90;;;23.80;99.90;;;;;;5083362;28;20060;-65
2023/09/06 12:20:59;;;;;;;9.57;5.32;;;23.70;99.90;;;;;;5087592;28;20044;-65
2023/09/06 12:23:28;;;;;;;;;;;23.70;99.90;;;;;;5091442;28;20272;-65
2023/09/06 12:25:58;;;;;;;7.35;6.25;;;23.80;99.90;;;;;;5091108;28;19981;-65
2023/09/06 12:28:26;;;;;;;10.38;6.15;;;23.90;99.90;;;;;;5088686;28;20051;-65
2023/09/06 12:30:55;;;;;;;6.68;5.60;;;24.00;99.90;;;;;;5090906;28;20048;-65
2023/09/06 12:33:23;;;;;;;8.00;5.57;;;24.10;99.90;;;;;;5090740;28;20358;-65
2023/09/06 12:36:01;;;;;;;8.52;5.00;;;24.00;99.90;;;;;;5088640;28;20075;-65
2023/09/06 12:38:29;;;;;;;8.45;4.97;;;24.00;99.90;;;;;;5080223;28;20067;-65
2023/09/06 12:40:57;;;;;;;7.15;5.00;;;24.00;99.90;;;;;;5090718;28;20055;-65
2023/09/06 12:43:26;;;;;;;13.48;5.13;;;23.90;99.90;;;;;;5087616;28;20040;-65
2023/09/06 12:45:57;;;;;;;5.60;4.53;;;23.90;99.90;;;;;;5090542;28;20124;-65
2023/09/06 12:48:25;;;;;;;6.03;5.03;;;23.90;99.90;;;;;;5086446;28;20135;-65
2023/09/06 12:50:53;;;;;;;6.32;4.90;;;23.90;99.90;;;;;;5077289;28;20040;-65
2023/09/06 12:53:23;;;;;;;7.43;5.22;;;23.90;99.90;;;;;;5073378;28;20049;-65
2023/09/06 12:55:50;;;;;;;;;;;23.90;99.90;;;;;;5071038;28;20045;-65
2023/09/06 12:58:17;;;;;;;7.47;4.88;;;23.90;99.90;;;;;;5088533;28;19924;-65